createdAt,value
2018-04-07T00:00:32.864Z,83.30
2018-04-07T00:03:00.992Z,84.50
2018-04-07T00:05:28.596Z,85.00
2018-04-07T00:07:56.388Z,85.00
2018-04-07T00:10:23.847Z,86.70
2018-04-07T01:34:51.792Z,93.30
2018-04-07T01:37:19.597Z,93.20
2018-04-07T01:39:47.123Z,93.40
2018-04-07T01:42:15.419Z,92.90
2018-04-07T01:44:42.872Z,92.90
2018-04-07T01:47:10.744Z,93.20
2018-04-07T01:49:38.192Z,93.30
2018-04-07T01:52:05.805Z,93.40
2018-04-07T01:54:34.023Z,93.50
2018-04-07T01:57:01.476Z,93.50
2018-04-07T01:59:29.692Z,92.90
2018-04-07T02:01:59.314Z,93.50
2018-04-07T02:04:27.539Z,93.70
2018-04-07T02:06:55.020Z,93.70
2018-04-07T02:09:22.467Z,93.50
2018-04-07T02:11:51.889Z,93.50
2018-04-07T02:14:20.221Z,93.10
2018-04-07T02:16:48.440Z,92.80
2018-04-07T02:19:15.888Z,92.80
2018-04-07T02:21:44.103Z,92.80
2018-04-07T02:24:11.560Z,92.80
2018-04-07T02:26:39.512Z,93.30
2018-04-07T02:29:07.031Z,93.60
2018-04-07T02:31:34.475Z,93.70
2018-04-07T02:34:01.924Z,93.80
2018-04-07T02:36:29.583Z,94.10
2018-04-07T02:38:57.322Z,94.10
2018-04-07T02:41:25.531Z,93.40
2018-04-07T02:43:53.028Z,93.40
2018-04-07T02:46:20.479Z,93.10
2018-04-07T02:48:48.688Z,93.10
2018-04-07T02:51:16.903Z,93.10
2018-04-07T02:53:44.563Z,93.10
2018-04-07T02:56:13.903Z,93.20
2018-04-07T02:58:41.368Z,93.40
2018-04-07T03:01:08.825Z,93.30
2018-04-07T03:03:37.576Z,93.20
2018-04-07T03:06:06.095Z,93.30
2018-04-07T03:08:33.678Z,93.30
2018-04-07T03:11:01.883Z,93.50
2018-04-07T03:13:30.099Z,93.50
2018-04-07T03:15:58.253Z,93.50
2018-04-07T03:18:26.383Z,93.40
2018-04-07T03:20:53.828Z,93.30
2018-04-07T03:23:21.266Z,93.10
2018-04-07T03:25:48.732Z,93.00
2018-04-07T03:28:16.389Z,93.10
2018-04-07T03:30:43.981Z,93.40
2018-04-07T03:33:12.218Z,92.90
2018-04-07T03:35:39.659Z,92.90
2018-04-07T03:38:07.100Z,93.20
2018-04-07T03:40:34.572Z,93.10
2018-04-07T03:43:02.032Z,92.80
2018-04-07T03:45:30.243Z,93.30
2018-04-07T03:47:57.764Z,93.30
2018-04-07T03:50:25.277Z,93.70
2018-04-07T03:52:52.739Z,93.90
2018-04-07T03:55:20.185Z,93.90
2018-04-07T03:57:47.754Z,94.20
2018-04-07T04:00:15.256Z,94.20
2018-04-07T04:02:42.746Z,94.20
2018-04-07T04:05:10.393Z,94.20
2018-04-07T04:07:38.611Z,93.60
2018-04-07T04:10:06.059Z,93.50
2018-04-07T04:12:33.707Z,93.50
2018-04-07T04:15:01.216Z,93.30
2018-04-07T04:17:28.712Z,93.30
2018-04-07T04:19:56.187Z,93.10
2018-04-07T04:22:23.666Z,93.00
2018-04-07T04:24:51.207Z,92.80
2018-04-07T04:27:19.462Z,92.90
2018-04-07T04:29:46.937Z,93.00
2018-04-07T04:32:14.368Z,93.30
2018-04-07T04:34:41.831Z,93.20
2018-04-07T04:37:10.047Z,92.90
2018-04-07T04:39:41.345Z,92.70
2018-04-07T04:42:08.835Z,92.70
2018-04-07T04:44:36.276Z,92.60
2018-04-07T04:47:04.522Z,92.70
2018-04-07T04:49:32.100Z,92.80
2018-04-07T04:51:59.616Z,92.40
2018-04-07T04:54:27.223Z,92.10
2018-04-07T04:56:55.576Z,92.90
2018-04-07T04:59:23.090Z,92.90
2018-04-07T05:01:50.879Z,93.00
2018-04-07T05:04:18.336Z,93.10
2018-04-07T05:06:45.792Z,93.20
2018-04-07T05:09:13.331Z,93.20
2018-04-07T05:11:40.787Z,93.20
2018-04-07T05:14:08.247Z,92.80
2018-04-07T05:16:36.467Z,93.20
2018-04-07T05:19:03.932Z,93.20
2018-04-07T05:21:32.147Z,93.00
2018-04-07T05:23:59.611Z,93.00
2018-04-07T05:26:27.078Z,92.90
2018-04-07T05:28:54.579Z,92.90
2018-04-07T05:31:22.040Z,93.00
2018-04-07T05:33:49.681Z,93.00
2018-04-07T05:36:17.127Z,92.60
2018-04-07T05:38:44.625Z,92.50
2018-04-07T05:41:12.051Z,92.60
2018-04-07T05:43:39.500Z,92.50
2018-04-07T05:46:07.662Z,92.50
2018-04-07T05:48:36.114Z,92.00
2018-04-07T05:51:03.572Z,91.30
2018-04-07T05:53:31.040Z,91.40
2018-04-07T05:55:58.493Z,91.10
2018-04-07T05:58:25.938Z,90.90
2018-04-07T06:00:54.936Z,90.60
2018-04-07T06:03:22.534Z,90.30
2018-04-07T06:05:50.744Z,90.20
2018-04-07T06:08:18.192Z,90.20
2018-04-07T06:10:45.651Z,90.00
2018-04-07T06:13:13.099Z,89.60
2018-04-07T06:15:41.317Z,87.50
2018-04-07T06:18:08.756Z,87.30
2018-04-07T06:20:36.751Z,86.30
2018-04-07T06:23:04.203Z,85.40
2018-04-07T06:25:31.676Z,84.80
2018-04-07T06:27:59.131Z,84.50
2018-04-07T06:30:27.351Z,83.90
2018-04-07T06:32:55.030Z,83.90
2018-04-07T06:35:23.272Z,83.40
2018-04-07T06:37:51.243Z,83.30
2018-04-07T06:40:18.686Z,82.20
2018-04-07T06:42:46.950Z,81.40
2018-04-07T06:45:15.531Z,81.10
2018-04-07T06:47:43.882Z,80.30
2018-04-07T06:50:11.327Z,80.30
2018-04-07T06:52:38.770Z,78.80
2018-04-07T06:55:06.273Z,77.40
2018-04-07T06:57:33.694Z,75.00
2018-04-07T07:00:01.975Z,70.30
2018-04-07T07:02:29.435Z,70.30
2018-04-07T07:04:56.903Z,69.20
2018-04-07T07:07:24.388Z,66.90
2018-04-07T07:09:51.851Z,65.60
2018-04-07T07:12:20.068Z,66.00
2018-04-07T07:14:49.908Z,65.90
2018-04-07T07:17:18.648Z,65.00
2018-04-07T07:19:46.167Z,65.00
2018-04-07T07:22:13.615Z,63.70
2018-04-07T07:24:41.060Z,60.80
2018-04-07T07:27:08.511Z,61.70
2018-04-07T07:29:36.003Z,61.30
2018-04-07T07:32:04.504Z,59.20
2018-04-07T07:34:31.947Z,52.30
2018-04-07T07:36:59.412Z,45.80
2018-04-07T07:39:28.785Z,35.20
2018-04-07T07:41:57.433Z,31.90
2018-04-07T07:44:24.827Z,31.70
2018-04-07T07:46:52.289Z,27.20
2018-04-07T07:49:19.741Z,26.30
2018-04-07T07:51:47.227Z,24.70
2018-04-07T07:54:14.678Z,22.60
2018-04-07T07:56:42.912Z,21.90
2018-04-07T07:59:10.363Z,21.90
2018-04-07T08:01:38.588Z,20.30
2018-04-07T08:04:06.102Z,20.20
2018-04-07T08:06:33.622Z,20.30
2018-04-07T08:09:03.703Z,21.00
2018-04-07T08:11:31.310Z,20.90
2018-04-07T08:13:58.897Z,21.20
2018-04-07T08:16:26.533Z,20.20
2018-04-07T08:18:54.091Z,20.10
2018-04-07T08:21:21.673Z,19.60
2018-04-07T08:23:49.182Z,18.50
2018-04-07T08:26:16.652Z,18.70
2018-04-07T08:28:44.104Z,19.00
2018-04-07T08:31:11.566Z,19.70
2018-04-07T08:33:39.019Z,20.00
2018-04-07T08:36:07.240Z,19.70
2018-04-07T08:38:34.692Z,19.70
2018-04-07T08:41:02.350Z,18.50
2018-04-07T08:43:29.814Z,18.00
2018-04-07T08:45:57.280Z,17.80
2018-04-07T08:48:24.731Z,18.00
2018-04-07T08:50:52.951Z,18.20
2018-04-07T08:53:20.409Z,18.10
2018-04-07T08:55:47.856Z,17.80
2018-04-07T08:58:15.322Z,17.50
2018-04-07T09:00:43.308Z,17.20
2018-04-07T09:03:10.763Z,18.30
2018-04-07T09:05:38.983Z,16.60
2018-04-07T09:08:06.534Z,16.60
2018-04-07T09:10:34.201Z,17.40
2018-04-07T09:13:01.732Z,17.70
2018-04-07T09:15:31.244Z,18.50
2018-04-07T09:17:58.787Z,18.40
2018-04-07T09:20:26.258Z,18.80
2018-04-07T09:22:53.726Z,18.90
2018-04-07T09:25:21.175Z,17.90
2018-04-07T09:27:48.674Z,16.90
2018-04-07T09:30:16.182Z,17.10
2018-04-07T09:32:43.652Z,17.30
2018-04-07T09:35:11.099Z,17.40
2018-04-07T09:37:38.565Z,17.30
2018-04-07T09:40:06.026Z,16.50
2018-04-07T09:42:33.472Z,16.80
2018-04-07T09:45:00.974Z,17.30
2018-04-07T09:47:28.393Z,16.00
2018-04-07T09:49:55.847Z,15.30
2018-04-07T09:52:23.348Z,14.80
2018-04-07T09:54:51.405Z,14.10
2018-04-07T09:57:18.866Z,14.90
2018-04-07T09:59:46.395Z,15.10
2018-04-07T10:02:25.437Z,14.90
2018-04-07T10:04:54.903Z,14.90
2018-04-07T10:07:22.396Z,15.20
2018-04-07T10:09:49.843Z,14.70
2018-04-07T10:12:17.324Z,14.70
2018-04-07T10:14:44.780Z,14.40
2018-04-07T10:17:13.261Z,14.80
2018-04-07T10:19:40.784Z,14.60
2018-04-07T10:22:08.329Z,14.20
2018-04-07T10:24:35.758Z,14.80
2018-04-07T10:27:03.236Z,14.20
2018-04-07T10:29:30.728Z,14.30
2018-04-07T10:31:58.180Z,13.50
2018-04-07T10:34:25.639Z,14.10
2018-04-07T10:36:53.101Z,14.30
2018-04-07T10:39:21.332Z,15.30
2018-04-07T10:41:48.795Z,15.20
2018-04-07T10:44:17.103Z,15.00
2018-04-07T10:46:44.550Z,15.00
2018-04-07T10:49:12.795Z,15.00
2018-04-07T10:51:41.025Z,15.00
2018-04-07T10:54:08.483Z,15.00
2018-04-07T10:56:36.033Z,15.60
2018-04-07T10:59:03.502Z,14.80
2018-04-07T11:01:31.748Z,14.70
2018-04-07T11:03:59.216Z,14.70
2018-04-07T11:06:27.437Z,17.40
2018-04-07T11:08:54.970Z,17.40
2018-04-07T11:11:22.536Z,15.60
2018-04-07T11:13:49.992Z,16.60
2018-04-07T11:16:17.497Z,16.80
2018-04-07T11:18:45.036Z,16.30
2018-04-07T11:21:14.196Z,17.10
2018-04-07T11:23:42.289Z,16.70
2018-04-07T11:26:12.796Z,17.80
2018-04-07T11:28:43.338Z,17.50
2018-04-07T11:31:10.781Z,17.90
2018-04-07T11:33:38.235Z,18.70
2018-04-07T11:36:05.697Z,20.30
2018-04-07T11:38:33.143Z,19.20
2018-04-07T11:41:01.020Z,18.90
2018-04-07T11:43:29.918Z,19.00
2018-04-07T11:45:57.396Z,17.50
2018-04-07T11:48:24.843Z,17.50
2018-04-07T11:50:57.069Z,18.00
2018-04-07T11:53:26.087Z,18.90
2018-04-07T11:55:54.312Z,19.30
2018-04-07T11:58:21.763Z,19.30
2018-04-07T12:00:49.224Z,19.40
2018-04-07T12:03:17.441Z,20.70
2018-04-07T12:05:44.920Z,20.50
2018-04-07T12:08:14.040Z,19.30
2018-04-07T12:10:41.879Z,19.20
2018-04-07T12:13:09.340Z,19.70
2018-04-07T12:15:36.789Z,18.00
2018-04-07T12:18:04.236Z,18.60
2018-04-07T12:20:31.689Z,19.00
2018-04-07T12:22:59.140Z,18.90
2018-04-07T12:25:26.589Z,19.80
2018-04-07T12:27:54.042Z,18.90
2018-04-07T12:30:21.479Z,19.20
2018-04-07T12:32:48.940Z,19.60
2018-04-07T12:35:16.441Z,18.30
2018-04-07T12:37:43.904Z,17.50
2018-04-07T12:40:11.346Z,16.80
2018-04-07T12:42:38.813Z,17.70
2018-04-07T12:45:06.260Z,18.20
2018-04-07T12:47:33.766Z,17.90
2018-04-07T12:50:01.208Z,17.90
2018-04-07T12:52:28.651Z,17.90
2018-04-07T12:54:56.129Z,16.50
2018-04-07T12:57:24.629Z,16.60
2018-04-07T12:59:52.234Z,17.30
2018-04-07T13:02:19.702Z,17.30
2018-04-07T13:04:47.154Z,17.50
2018-04-07T13:07:14.603Z,17.60
2018-04-07T13:09:42.940Z,17.20
2018-04-07T13:12:10.425Z,17.20
2018-04-07T13:14:37.943Z,17.80
2018-04-07T13:17:06.164Z,17.10
2018-04-07T13:19:33.623Z,17.10
2018-04-07T13:22:01.092Z,17.10
2018-04-07T13:24:28.543Z,17.70
2018-04-07T13:26:55.986Z,18.80
2018-04-07T13:29:23.436Z,17.50
2018-04-07T13:31:50.893Z,18.00
2018-04-07T13:34:20.685Z,18.50
2018-04-07T13:36:48.442Z,18.50
2018-04-07T13:39:16.667Z,18.10
2018-04-07T13:41:44.119Z,18.00
2018-04-07T13:44:13.602Z,18.20
2018-04-07T13:46:41.056Z,18.50
2018-04-07T13:49:08.524Z,17.70
2018-04-07T13:51:36.784Z,18.80
2018-04-07T13:54:04.999Z,19.20
2018-04-07T13:56:32.471Z,19.10
2018-04-07T13:58:59.935Z,18.10
2018-04-07T14:01:27.364Z,17.90
2018-04-07T14:03:54.808Z,17.70
2018-04-07T14:06:22.272Z,19.40
2018-04-07T14:08:49.729Z,18.30
2018-04-07T14:11:17.176Z,17.20
2018-04-07T14:13:45.007Z,18.30
2018-04-07T14:16:15.309Z,17.30
2018-04-07T14:18:44.403Z,17.80
2018-04-07T14:21:12.111Z,18.20
2018-04-07T14:23:39.557Z,17.90
2018-04-07T14:26:07.018Z,19.00
2018-04-07T14:28:36.538Z,19.60
2018-04-07T14:31:04.855Z,19.40
2018-04-07T14:33:38.527Z,19.40
2018-04-07T14:36:06.476Z,18.60
2018-04-07T14:38:34.748Z,18.40
2018-04-07T14:41:07.192Z,18.20
2018-04-07T14:43:34.639Z,18.20
2018-04-07T14:46:02.233Z,19.20
2018-04-07T14:48:29.710Z,20.00
2018-04-07T14:50:57.152Z,20.50
2018-04-07T14:53:24.601Z,20.50
2018-04-07T14:55:52.067Z,20.20
2018-04-07T14:58:19.515Z,19.90
2018-04-07T15:00:47.519Z,20.60
2018-04-07T15:03:15.049Z,20.70
2018-04-07T15:05:42.795Z,19.70
2018-04-07T15:08:11.368Z,19.30
2018-04-07T15:10:39.588Z,18.80
2018-04-07T15:13:07.035Z,18.60
2018-04-07T15:15:34.487Z,18.70
2018-04-07T15:18:01.936Z,19.30
2018-04-07T15:20:29.411Z,19.00
2018-04-07T15:22:59.617Z,19.60
2018-04-07T15:25:27.051Z,19.60
2018-04-07T15:27:54.507Z,18.90
2018-04-07T15:30:22.723Z,20.40
2018-04-07T15:32:50.293Z,20.30
2018-04-07T15:35:17.948Z,19.30
2018-04-07T15:37:46.340Z,19.50
2018-04-07T15:40:14.504Z,19.50
2018-04-07T15:42:42.779Z,19.60
2018-04-07T15:45:10.227Z,19.60
2018-04-07T15:47:39.258Z,20.00
2018-04-07T15:50:07.483Z,21.10
2018-04-07T15:52:35.943Z,20.90
2018-04-07T15:55:04.152Z,21.00
2018-04-07T15:57:31.611Z,20.90
2018-04-07T15:59:59.069Z,22.20
2018-04-07T16:02:26.557Z,22.10
2018-04-07T16:04:54.008Z,21.10
2018-04-07T16:07:23.194Z,21.60
2018-04-07T16:09:50.773Z,22.90
2018-04-07T16:12:18.403Z,23.50
2018-04-07T16:14:45.873Z,21.90
2018-04-07T16:17:13.491Z,21.20
2018-04-07T16:19:40.961Z,21.30
2018-04-07T16:22:08.410Z,21.90
2018-04-07T16:24:36.065Z,22.60
2018-04-07T16:27:04.186Z,23.30
2018-04-07T16:29:31.872Z,23.30
2018-04-07T16:31:59.617Z,21.90
2018-04-07T16:34:27.287Z,21.80
2018-04-07T16:36:55.028Z,21.90
2018-04-07T16:39:22.734Z,22.60
2018-04-07T16:41:51.162Z,23.10
2018-04-07T16:44:18.799Z,23.00
2018-04-07T16:46:49.270Z,22.90
2018-04-07T16:49:16.874Z,23.20
2018-04-07T16:51:45.010Z,23.20
2018-04-07T16:54:13.356Z,23.70
2018-04-07T16:56:40.992Z,24.10
2018-04-07T16:59:08.482Z,24.30
2018-04-07T17:01:36.028Z,24.60
2018-04-07T17:04:03.503Z,25.00
2018-04-07T17:06:30.968Z,24.90
2018-04-07T17:08:59.194Z,25.10
2018-04-07T17:11:26.655Z,25.10
2018-04-07T17:13:54.128Z,24.80
2018-04-07T17:16:21.607Z,24.90
2018-04-07T17:18:49.075Z,25.00
2018-04-07T17:21:17.292Z,26.10
2018-04-07T17:23:44.776Z,26.10
2018-04-07T17:26:13.321Z,26.60
2018-04-07T17:28:40.787Z,26.70
2018-04-07T17:31:08.240Z,27.00
2018-04-07T17:33:36.098Z,27.60
2018-04-07T17:36:03.870Z,28.40
2018-04-07T17:38:31.805Z,29.30
2018-04-07T17:40:59.679Z,29.70
2018-04-07T17:43:27.132Z,30.20
2018-04-07T17:45:54.641Z,30.00
2018-04-07T17:48:22.087Z,30.30
2018-04-07T17:50:49.532Z,30.60
2018-04-07T17:53:17.465Z,31.30
2018-04-07T17:55:45.708Z,32.30
2018-04-07T17:58:14.846Z,33.00
2018-04-07T18:00:43.530Z,32.90
2018-04-07T18:03:13.922Z,33.60
2018-04-07T18:05:41.427Z,35.30
2018-04-07T18:08:13.912Z,37.40
2018-04-07T18:10:41.750Z,37.60
2018-04-07T18:13:09.201Z,37.30
2018-04-07T18:15:36.842Z,39.10
2018-04-07T18:18:04.416Z,41.20
2018-04-07T18:20:32.148Z,44.00
2018-04-07T18:22:59.823Z,45.50
2018-04-07T18:25:28.259Z,47.30
2018-04-07T18:27:55.958Z,47.30
2018-04-07T18:30:24.230Z,48.30
2018-04-07T18:33:01.264Z,50.10
2018-04-07T18:35:33.470Z,50.90
2018-04-07T18:38:01.169Z,50.90
2018-04-07T18:40:28.920Z,52.00
2018-04-07T18:42:56.642Z,53.30
2018-04-07T18:45:26.407Z,54.10
2018-04-07T18:47:54.102Z,54.80
2018-04-07T18:50:21.610Z,55.00
2018-04-07T18:52:51.985Z,56.20
2018-04-07T18:55:20.632Z,57.10
2018-04-07T18:57:48.108Z,57.00
2018-04-07T19:00:15.559Z,57.30
2018-04-07T19:02:43.020Z,58.20
2018-04-07T19:05:10.475Z,59.50
2018-04-07T19:07:37.924Z,62.00
2018-04-07T19:10:06.243Z,61.80
2018-04-07T19:12:34.460Z,63.40
2018-04-07T19:15:01.916Z,63.30
2018-04-07T19:17:29.467Z,63.70
2018-04-07T19:19:56.936Z,64.60
2018-04-07T19:22:25.159Z,66.00
2018-04-07T19:24:52.604Z,65.90
2018-04-07T19:27:20.086Z,67.40
2018-04-07T19:29:48.308Z,67.20
2018-04-07T19:32:15.814Z,67.20
2018-04-07T19:34:44.222Z,68.00
2018-04-07T19:37:11.802Z,69.90
2018-04-07T19:39:39.257Z,70.20
2018-04-07T19:42:06.713Z,70.60
2018-04-07T19:44:34.255Z,71.00
2018-04-07T19:47:01.726Z,71.80
2018-04-07T19:49:29.164Z,72.90
2018-04-07T19:51:56.616Z,73.30
2018-04-07T19:54:24.055Z,73.00
2018-04-07T19:56:51.525Z,73.30
2018-04-07T19:59:18.971Z,72.90
2018-04-07T20:01:46.466Z,73.00
2018-04-07T20:04:14.679Z,75.00
2018-04-07T20:06:43.496Z,75.60
2018-04-07T20:09:10.951Z,76.00
2018-04-07T20:11:38.390Z,77.70
2018-04-07T20:14:05.843Z,77.80
2018-04-07T20:16:35.288Z,76.60
2018-04-07T20:19:02.751Z,76.50
2018-04-07T20:21:31.980Z,77.30
2018-04-07T20:24:00.199Z,78.30
2018-04-07T20:26:29.778Z,78.80
2018-04-07T20:28:57.344Z,78.80
2018-04-07T20:31:24.800Z,79.90
2018-04-07T20:33:52.272Z,82.10
2018-04-07T20:36:19.787Z,83.50
2018-04-07T20:38:47.363Z,83.60
2018-04-07T20:41:14.811Z,83.80
2018-04-07T20:43:42.255Z,84.80
2018-04-07T20:46:09.705Z,84.50
2018-04-07T20:48:37.899Z,84.90
2018-04-07T20:51:06.207Z,85.50
2018-04-07T20:53:34.798Z,85.60
2018-04-07T20:56:03.044Z,85.30
2018-04-07T20:58:30.495Z,85.20
2018-04-07T21:00:58.705Z,85.90
2018-04-07T21:03:26.160Z,85.90
2018-04-07T21:05:54.407Z,85.90
2018-04-07T21:08:24.386Z,85.40
2018-04-07T21:10:52.639Z,85.20
2018-04-07T21:15:49.186Z,85.10
2018-04-07T21:18:16.635Z,85.60
2018-04-07T21:20:44.082Z,85.80
2018-04-07T21:23:11.541Z,86.40
2018-04-07T21:25:39.001Z,86.20
2018-04-07T21:28:06.448Z,85.80
2018-04-07T21:30:33.904Z,87.00
2018-04-07T21:33:01.352Z,86.20
2018-04-07T21:35:28.836Z,85.40
2018-04-07T21:37:56.261Z,86.10
2018-04-07T21:40:24.495Z,85.30
2018-04-07T21:42:51.944Z,85.20
2018-04-07T21:45:19.387Z,84.30
2018-04-07T21:47:46.829Z,84.90
2018-04-07T21:50:14.273Z,85.40
2018-04-07T21:52:41.733Z,84.50
2018-04-07T21:55:09.178Z,85.00
2018-04-07T21:57:36.632Z,86.30
2018-04-07T22:00:04.077Z,87.80
2018-04-07T22:02:32.294Z,87.80
2018-04-07T22:04:59.742Z,87.80
2018-04-07T22:07:27.197Z,88.30
2018-04-07T22:09:54.691Z,89.40
2018-04-07T22:12:22.146Z,89.10
2018-04-07T22:14:49.665Z,88.80
2018-04-07T22:17:17.120Z,89.40
2018-04-07T22:19:44.571Z,88.00
2018-04-07T22:22:12.040Z,88.90
2018-04-07T22:24:39.489Z,88.70
2018-04-07T22:27:06.956Z,88.20
2018-04-07T22:29:34.404Z,88.50
2018-04-07T22:32:01.849Z,88.30
2018-04-07T22:34:29.301Z,88.20
2018-04-07T22:36:56.778Z,88.50
2018-04-07T22:39:24.230Z,89.40
2018-04-07T22:41:51.689Z,89.70
2018-04-07T22:44:19.142Z,90.20
2018-04-07T22:46:46.584Z,90.20
2018-04-07T22:49:14.091Z,90.70
2018-04-07T22:51:41.506Z,91.20
2018-04-07T22:54:08.980Z,91.10
2018-04-07T22:56:36.425Z,91.30
2018-04-07T22:59:03.880Z,91.40
2018-04-07T23:01:31.336Z,91.00
2018-04-07T23:03:59.209Z,91.00
2018-04-07T23:06:26.658Z,90.90
2018-04-07T23:08:54.110Z,91.20
2018-04-07T23:11:21.548Z,91.30
2018-04-07T23:13:49.756Z,91.70
2018-04-07T23:16:17.208Z,91.40
2018-04-07T23:18:44.659Z,91.10
2018-04-07T23:21:12.100Z,91.60
2018-04-07T23:23:39.543Z,91.60
2018-04-07T23:26:07.770Z,91.70
2018-04-07T23:28:35.216Z,91.60
2018-04-07T23:31:02.660Z,91.80
2018-04-07T23:33:30.112Z,91.90
2018-04-07T23:35:57.572Z,91.60
2018-04-07T23:38:25.029Z,91.50
2018-04-07T23:40:52.478Z,91.50
2018-04-07T23:43:19.932Z,91.70
2018-04-07T23:45:47.389Z,91.70
2018-04-07T23:48:14.872Z,91.90
2018-04-07T23:50:42.333Z,91.90
2018-04-07T23:53:09.793Z,92.00
2018-04-07T23:55:38.003Z,92.20
2018-04-07T23:58:06.230Z,92.40
